sensor_id;sensor_type;location;lat;lon;timestamp;P1;durP1;ratioP1;P2;durP2;ratioP2
32810;SDS011;65470;47.324;8.548;2023-02-17T00:02:18;14.40;;;7.50;;
32810;SDS011;65470;47.324;8.548;2023-02-17T00:04:43;11.02;;;8.23;;
32810;SDS011;65470;47.324;8.548;2023-02-17T00:07:09;11.75;;;7.85;;
32810;SDS011;65470;47.324;8.548;2023-02-17T00:09:35;14.98;;;8.63;;
32810;SDS011;65470;47.324;8.548;2023-02-17T00:12:01;12.07;;;7.50;;
32810;SDS011;65470;47.324;8.548;2023-02-17T00:14:27;12.15;;;7.88;;
32810;SDS011;65470;47.324;8.548;2023-02-17T00:16:52;10.93;;;8.05;;
32810;SDS011;65470;47.324;8.548;2023-02-17T00:19:18;11.23;;;8.05;;
32810;SDS011;65470;47.324;8.548;2023-02-17T00:21:50;10.73;;;7.25;;
32810;SDS011;65470;47.324;8.548;2023-02-17T00:24:17;13.35;;;8.02;;
32810;SDS011;65470;47.324;8.548;2023-02-17T00:26:43;10.90;;;7.38;;
32810;SDS011;65470;47.324;8.548;2023-02-17T00:29:08;14.32;;;7.70;;
32810;SDS011;65470;47.324;8.548;2023-02-17T00:31:34;12.60;;;8.20;;
32810;SDS011;65470;47.324;8.548;2023-02-17T00:34:00;10.25;;;8.18;;
32810;SDS011;65470;47.324;8.548;2023-02-17T00:36:25;10.02;;;7.57;;
32810;SDS011;65470;47.324;8.548;2023-02-17T00:38:52;10.90;;;7.80;;
32810;SDS011;65470;47.324;8.548;2023-02-17T00:41:19;9.95;;;7.13;;
32810;SDS011;65470;47.324;8.548;2023-02-17T00:43:45;14.02;;;8.25;;
32810;SDS011;65470;47.324;8.548;2023-02-17T00:46:12;10.27;;;7.07;;
32810;SDS011;65470;47.324;8.548;2023-02-17T00:48:38;11.10;;;7.57;;
32810;SDS011;65470;47.324;8.548;2023-02-17T00:51:04;10.30;;;7.25;;
32810;SDS011;65470;47.324;8.548;2023-02-17T00:53:30;13.38;;;7.30;;
32810;SDS011;65470;47.324;8.548;2023-02-17T00:55:56;11.82;;;7.05;;
32810;SDS011;65470;47.324;8.548;2023-02-17T00:58:22;12.65;;;7.57;;
32810;SDS011;65470;47.324;8.548;2023-02-17T01:00:48;8.63;;;6.28;;
32810;SDS011;65470;47.324;8.548;2023-02-17T01:03:13;9.75;;;6.85;;
32810;SDS011;65470;47.324;8.548;2023-02-17T01:05:40;8.50;;;6.38;;
32810;SDS011;65470;47.324;8.548;2023-02-17T01:08:07;9.05;;;6.90;;
32810;SDS011;65470;47.324;8.548;2023-02-17T01:10:35;10.05;;;6.85;;
32810;SDS011;65470;47.324;8.548;2023-02-17T01:13:02;8.65;;;6.43;;
32810;SDS011;65470;47.324;8.548;2023-02-17T01:15:28;10.18;;;6.65;;
32810;SDS011;65470;47.324;8.548;2023-02-17T01:17:54;8.32;;;6.20;;
32810;SDS011;65470;47.324;8.548;2023-02-17T01:20:19;8.27;;;6.25;;
32810;SDS011;65470;47.324;8.548;2023-02-17T01:22:45;8.63;;;5.60;;
32810;SDS011;65470;47.324;8.548;2023-02-17T01:25:11;8.00;;;5.30;;
32810;SDS011;65470;47.324;8.548;2023-02-17T01:27:36;9.60;;;6.65;;
32810;SDS011;65470;47.324;8.548;2023-02-17T01:30:02;8.63;;;6.13;;
32810;SDS011;65470;47.324;8.548;2023-02-17T01:32:28;7.25;;;5.80;;
32810;SDS011;65470;47.324;8.548;2023-02-17T01:34:54;9.48;;;6.00;;
32810;SDS011;65470;47.324;8.548;2023-02-17T01:37:20;11.15;;;6.45;;
32810;SDS011;65470;47.324;8.548;2023-02-17T01:39:45;8.55;;;5.15;;
32810;SDS011;65470;47.324;8.548;2023-02-17T01:42:17;8.95;;;5.85;;
32810;SDS011;65470;47.324;8.548;2023-02-17T01:47:44;9.50;;;5.80;;
32810;SDS011;65470;47.324;8.548;2023-02-17T01:50:35;7.45;;;5.60;;
32810;SDS011;65470;47.324;8.548;2023-02-17T01:53:13;7.10;;;5.47;;
32810;SDS011;65470;47.324;8.548;2023-02-17T01:55:43;11.32;;;6.38;;
32810;SDS011;65470;47.324;8.548;2023-02-17T01:58:10;7.35;;;5.80;;
32810;SDS011;65470;47.324;8.548;2023-02-17T02:00:40;9.38;;;5.78;;
32810;SDS011;65470;47.324;8.548;2023-02-17T02:03:07;12.48;;;6.22;;
32810;SDS011;65470;47.324;8.548;2023-02-17T02:05:35;9.63;;;6.13;;
32810;SDS011;65470;47.324;8.548;2023-02-17T02:08:02;9.20;;;6.80;;
32810;SDS011;65470;47.324;8.548;2023-02-17T02:10:29;9.23;;;6.22;;
32810;SDS011;65470;47.324;8.548;2023-02-17T02:12:54;11.52;;;6.35;;
32810;SDS011;65470;47.324;8.548;2023-02-17T02:15:21;13.77;;;7.35;;
32810;SDS011;65470;47.324;8.548;2023-02-17T02:34:03;8.13;;;5.93;;
32810;SDS011;65470;47.324;8.548;2023-02-17T02:36:36;10.60;;;6.05;;
32810;SDS011;65470;47.324;8.548;2023-02-17T02:39:12;11.02;;;5.90;;
32810;SDS011;65470;47.324;8.548;2023-02-17T02:41:42;9.05;;;5.93;;
32810;SDS011;65470;47.324;8.548;2023-02-17T02:44:20;10.52;;;5.93;;
32810;SDS011;65470;47.324;8.548;2023-02-17T02:46:56;7.93;;;5.80;;
32810;SDS011;65470;47.324;8.548;2023-02-17T02:49:26;12.63;;;6.05;;
32810;SDS011;65470;47.324;8.548;2023-02-17T02:51:54;12.02;;;5.82;;
32810;SDS011;65470;47.324;8.548;2023-02-17T03:03:32;9.77;;;6.53;;
32810;SDS011;65470;47.324;8.548;2023-02-17T03:06:27;10.75;;;6.43;;
32810;SDS011;65470;47.324;8.548;2023-02-17T03:09:29;10.60;;;6.97;;
32810;SDS011;65470;47.324;8.548;2023-02-17T03:11:55;8.90;;;6.45;;
32810;SDS011;65470;47.324;8.548;2023-02-17T03:14:22;7.78;;;6.20;;
32810;SDS011;65470;47.324;8.548;2023-02-17T03:16:48;10.02;;;7.13;;
32810;SDS011;65470;47.324;8.548;2023-02-17T03:19:14;9.32;;;5.97;;
32810;SDS011;65470;47.324;8.548;2023-02-17T03:21:46;8.90;;;6.30;;
32810;SDS011;65470;47.324;8.548;2023-02-17T03:24:13;8.20;;;5.60;;
32810;SDS011;65470;47.324;8.548;2023-02-17T03:26:39;9.07;;;6.25;;
32810;SDS011;65470;47.324;8.548;2023-02-17T03:29:04;9.95;;;6.00;;
32810;SDS011;65470;47.324;8.548;2023-02-17T03:31:30;8.45;;;5.47;;
32810;SDS011;65470;47.324;8.548;2023-02-17T03:33:56;9.27;;;6.40;;
32810;SDS011;65470;47.324;8.548;2023-02-17T03:36:22;8.80;;;5.93;;
32810;SDS011;65470;47.324;8.548;2023-02-17T03:38:48;10.98;;;7.03;;
32810;SDS011;65470;47.324;8.548;2023-02-17T03:41:14;7.25;;;6.35;;
32810;SDS011;65470;47.324;8.548;2023-02-17T03:43:39;10.10;;;7.30;;
32810;SDS011;65470;47.324;8.548;2023-02-17T03:46:09;9.27;;;7.10;;
32810;SDS011;65470;47.324;8.548;2023-02-17T03:48:38;7.85;;;6.55;;
32810;SDS011;65470;47.324;8.548;2023-02-17T03:51:13;8.70;;;7.00;;
32810;SDS011;65470;47.324;8.548;2023-02-17T03:53:41;8.95;;;6.88;;
32810;SDS011;65470;47.324;8.548;2023-02-17T03:56:07;9.02;;;6.45;;
32810;SDS011;65470;47.324;8.548;2023-02-17T03:58:33;7.10;;;6.40;;
32810;SDS011;65470;47.324;8.548;2023-02-17T04:00:59;10.95;;;7.30;;
32810;SDS011;65470;47.324;8.548;2023-02-17T04:03:25;8.00;;;6.10;;
32810;SDS011;65470;47.324;8.548;2023-02-17T04:05:51;8.20;;;6.75;;
32810;SDS011;65470;47.324;8.548;2023-02-17T04:08:18;8.52;;;5.68;;
32810;SDS011;65470;47.324;8.548;2023-02-17T04:10:44;8.88;;;6.07;;
32810;SDS011;65470;47.324;8.548;2023-02-17T04:13:10;8.75;;;6.90;;
32810;SDS011;65470;47.324;8.548;2023-02-17T04:15:36;11.95;;;6.10;;
32810;SDS011;65470;47.324;8.548;2023-02-17T04:18:01;9.27;;;5.70;;
32810;SDS011;65470;47.324;8.548;2023-02-17T04:20:27;8.68;;;6.35;;
32810;SDS011;65470;47.324;8.548;2023-02-17T04:22:53;9.13;;;6.15;;
32810;SDS011;65470;47.324;8.548;2023-02-17T04:25:18;10.15;;;6.65;;
32810;SDS011;65470;47.324;8.548;2023-02-17T04:27:44;9.15;;;6.28;;
32810;SDS011;65470;47.324;8.548;2023-02-17T04:30:09;8.15;;;6.15;;
32810;SDS011;65470;47.324;8.548;2023-02-17T04:32:36;7.95;;;6.43;;
32810;SDS011;65470;47.324;8.548;2023-02-17T04:35:01;9.45;;;6.70;;
32810;SDS011;65470;47.324;8.548;2023-02-17T04:37:27;10.80;;;5.88;;
32810;SDS011;65470;47.324;8.548;2023-02-17T04:39:53;9.07;;;6.00;;
32810;SDS011;65470;47.324;8.548;2023-02-17T04:42:18;8.98;;;6.38;;
32810;SDS011;65470;47.324;8.548;2023-02-17T04:44:44;11.50;;;6.15;;
32810;SDS011;65470;47.324;8.548;2023-02-17T04:47:09;11.68;;;6.10;;
32810;SDS011;65470;47.324;8.548;2023-02-17T04:49:35;8.98;;;6.28;;
32810;SDS011;65470;47.324;8.548;2023-02-17T04:52:01;7.78;;;5.80;;
32810;SDS011;65470;47.324;8.548;2023-02-17T04:54:26;8.77;;;4.75;;
32810;SDS011;65470;47.324;8.548;2023-02-17T04:56:52;9.52;;;5.53;;
32810;SDS011;65470;47.324;8.548;2023-02-17T04:59:18;6.05;;;4.65;;
32810;SDS011;65470;47.324;8.548;2023-02-17T05:01:43;6.18;;;4.57;;
32810;SDS011;65470;47.324;8.548;2023-02-17T05:04:09;6.05;;;4.75;;
32810;SDS011;65470;47.324;8.548;2023-02-17T05:06:35;9.57;;;5.05;;
32810;SDS011;65470;47.324;8.548;2023-02-17T05:09:00;6.75;;;5.05;;
32810;SDS011;65470;47.324;8.548;2023-02-17T05:11:26;7.47;;;5.22;;
32810;SDS011;65470;47.324;8.548;2023-02-17T05:13:51;6.47;;;4.95;;
32810;SDS011;65470;47.324;8.548;2023-02-17T05:16:17;8.57;;;5.50;;
32810;SDS011;65470;47.324;8.548;2023-02-17T05:18:43;7.15;;;4.75;;
32810;SDS011;65470;47.324;8.548;2023-02-17T05:21:08;7.85;;;5.80;;
32810;SDS011;65470;47.324;8.548;2023-02-17T05:23:34;5.75;;;4.65;;
32810;SDS011;65470;47.324;8.548;2023-02-17T05:26:05;7.68;;;4.85;;
32810;SDS011;65470;47.324;8.548;2023-02-17T05:28:32;6.07;;;5.03;;
32810;SDS011;65470;47.324;8.548;2023-02-17T05:30:59;8.02;;;5.28;;
32810;SDS011;65470;47.324;8.548;2023-02-17T05:33:25;6.90;;;4.40;;
32810;SDS011;65470;47.324;8.548;2023-02-17T05:35:51;5.65;;;4.30;;
32810;SDS011;65470;47.324;8.548;2023-02-17T05:38:16;7.65;;;4.40;;
32810;SDS011;65470;47.324;8.548;2023-02-17T05:40:42;5.65;;;4.50;;
32810;SDS011;65470;47.324;8.548;2023-02-17T05:43:07;6.68;;;4.75;;
32810;SDS011;65470;47.324;8.548;2023-02-17T05:45:33;5.68;;;4.40;;
32810;SDS011;65470;47.324;8.548;2023-02-17T05:47:59;5.75;;;4.32;;
32810;SDS011;65470;47.324;8.548;2023-02-17T05:50:24;10.00;;;4.78;;
32810;SDS011;65470;47.324;8.548;2023-02-17T05:52:50;7.00;;;4.95;;
32810;SDS011;65470;47.324;8.548;2023-02-17T05:55:16;11.35;;;4.72;;
32810;SDS011;65470;47.324;8.548;2023-02-17T05:57:42;6.10;;;4.38;;
32810;SDS011;65470;47.324;8.548;2023-02-17T06:00:08;6.43;;;4.22;;
32810;SDS011;65470;47.324;8.548;2023-02-17T06:02:34;9.75;;;5.25;;
32810;SDS011;65470;47.324;8.548;2023-02-17T06:04:59;4.38;;;3.80;;
32810;SDS011;65470;47.324;8.548;2023-02-17T06:07:25;6.82;;;4.63;;
32810;SDS011;65470;47.324;8.548;2023-02-17T06:09:51;6.13;;;4.60;;
32810;SDS011;65470;47.324;8.548;2023-02-17T06:12:16;6.53;;;4.20;;
32810;SDS011;65470;47.324;8.548;2023-02-17T06:14:42;6.50;;;4.32;;
32810;SDS011;65470;47.324;8.548;2023-02-17T06:17:07;5.38;;;4.40;;
32810;SDS011;65470;47.324;8.548;2023-02-17T06:19:33;8.85;;;4.25;;
32810;SDS011;65470;47.324;8.548;2023-02-17T06:21:59;5.60;;;4.40;;
32810;SDS011;65470;47.324;8.548;2023-02-17T06:24:24;7.70;;;4.53;;
32810;SDS011;65470;47.324;8.548;2023-02-17T06:26:50;6.07;;;4.85;;
32810;SDS011;65470;47.324;8.548;2023-02-17T06:29:16;11.73;;;4.13;;
32810;SDS011;65470;47.324;8.548;2023-02-17T06:31:41;10.25;;;4.82;;
32810;SDS011;65470;47.324;8.548;2023-02-17T06:34:07;6.97;;;4.35;;
32810;SDS011;65470;47.324;8.548;2023-02-17T06:36:32;7.15;;;4.10;;
32810;SDS011;65470;47.324;8.548;2023-02-17T06:38:58;5.20;;;3.80;;
32810;SDS011;65470;47.324;8.548;2023-02-17T06:41:24;5.43;;;3.90;;
32810;SDS011;65470;47.324;8.548;2023-02-17T06:43:49;8.30;;;4.72;;
32810;SDS011;65470;47.324;8.548;2023-02-17T06:46:15;6.93;;;4.15;;
32810;SDS011;65470;47.324;8.548;2023-02-17T06:48:40;7.57;;;4.72;;
32810;SDS011;65470;47.324;8.548;2023-02-17T06:51:06;11.88;;;4.38;;
32810;SDS011;65470;47.324;8.548;2023-02-17T06:53:32;8.88;;;4.18;;
32810;SDS011;65470;47.324;8.548;2023-02-17T06:55:57;7.32;;;4.88;;
32810;SDS011;65470;47.324;8.548;2023-02-17T06:58:23;8.23;;;4.75;;
32810;SDS011;65470;47.324;8.548;2023-02-17T07:00:48;12.50;;;5.68;;
32810;SDS011;65470;47.324;8.548;2023-02-17T07:03:15;10.52;;;5.28;;
32810;SDS011;65470;47.324;8.548;2023-02-17T07:05:41;10.98;;;5.68;;
32810;SDS011;65470;47.324;8.548;2023-02-17T07:08:06;8.77;;;5.28;;
32810;SDS011;65470;47.324;8.548;2023-02-17T07:10:32;9.80;;;6.15;;
32810;SDS011;65470;47.324;8.548;2023-02-17T07:12:58;8.63;;;6.40;;
32810;SDS011;65470;47.324;8.548;2023-02-17T07:15:23;7.93;;;5.15;;
32810;SDS011;65470;47.324;8.548;2023-02-17T07:17:49;9.38;;;5.50;;
32810;SDS011;65470;47.324;8.548;2023-02-17T07:20:14;10.32;;;5.50;;
32810;SDS011;65470;47.324;8.548;2023-02-17T07:22:40;8.85;;;5.35;;
32810;SDS011;65470;47.324;8.548;2023-02-17T07:25:06;13.23;;;6.00;;
32810;SDS011;65470;47.324;8.548;2023-02-17T07:27:33;8.05;;;5.90;;
32810;SDS011;65470;47.324;8.548;2023-02-17T07:30:00;11.13;;;5.97;;
32810;SDS011;65470;47.324;8.548;2023-02-17T07:32:25;7.75;;;6.15;;
32810;SDS011;65470;47.324;8.548;2023-02-17T07:34:51;12.82;;;6.93;;
32810;SDS011;65470;47.324;8.548;2023-02-17T07:37:16;8.65;;;5.57;;
32810;SDS011;65470;47.324;8.548;2023-02-17T07:39:45;10.18;;;5.88;;
32810;SDS011;65470;47.324;8.548;2023-02-17T07:42:14;10.07;;;5.95;;
32810;SDS011;65470;47.324;8.548;2023-02-17T07:44:40;11.77;;;6.10;;
32810;SDS011;65470;47.324;8.548;2023-02-17T07:47:05;9.77;;;5.88;;
32810;SDS011;65470;47.324;8.548;2023-02-17T07:49:31;8.77;;;6.00;;
32810;SDS011;65470;47.324;8.548;2023-02-17T07:51:56;12.07;;;6.47;;
32810;SDS011;65470;47.324;8.548;2023-02-17T07:54:22;9.70;;;6.43;;
32810;SDS011;65470;47.324;8.548;2023-02-17T07:56:48;11.60;;;6.18;;
32810;SDS011;65470;47.324;8.548;2023-02-17T07:59:13;10.93;;;6.68;;
32810;SDS011;65470;47.324;8.548;2023-02-17T08:01:39;10.38;;;6.07;;
32810;SDS011;65470;47.324;8.548;2023-02-17T08:04:05;11.18;;;6.22;;
32810;SDS011;65470;47.324;8.548;2023-02-17T08:06:31;9.63;;;6.40;;
32810;SDS011;65470;47.324;8.548;2023-02-17T08:08:57;12.38;;;6.90;;
32810;SDS011;65470;47.324;8.548;2023-02-17T08:11:41;9.82;;;7.03;;
32810;SDS011;65470;47.324;8.548;2023-02-17T08:14:26;12.40;;;6.63;;
32810;SDS011;65470;47.324;8.548;2023-02-17T08:16:54;7.60;;;6.35;;
32810;SDS011;65470;47.324;8.548;2023-02-17T08:19:20;10.45;;;5.90;;
32810;SDS011;65470;47.324;8.548;2023-02-17T08:21:46;9.75;;;6.53;;
32810;SDS011;65470;47.324;8.548;2023-02-17T08:24:12;10.00;;;6.32;;
32810;SDS011;65470;47.324;8.548;2023-02-17T08:26:40;9.77;;;6.75;;
32810;SDS011;65470;47.324;8.548;2023-02-17T08:29:06;9.73;;;5.85;;
32810;SDS011;65470;47.324;8.548;2023-02-17T08:31:32;9.07;;;6.03;;
32810;SDS011;65470;47.324;8.548;2023-02-17T08:34:00;7.88;;;5.80;;
32810;SDS011;65470;47.324;8.548;2023-02-17T08:36:27;11.45;;;5.97;;
32810;SDS011;65470;47.324;8.548;2023-02-17T08:38:53;11.02;;;6.45;;
32810;SDS011;65470;47.324;8.548;2023-02-17T08:41:24;7.63;;;6.15;;
32810;SDS011;65470;47.324;8.548;2023-02-17T08:43:53;8.75;;;6.22;;
32810;SDS011;65470;47.324;8.548;2023-02-17T08:46:19;9.65;;;6.43;;
32810;SDS011;65470;47.324;8.548;2023-02-17T08:48:45;10.20;;;6.25;;
32810;SDS011;65470;47.324;8.548;2023-02-17T08:51:12;15.18;;;5.43;;
32810;SDS011;65470;47.324;8.548;2023-02-17T08:53:39;11.35;;;5.57;;
32810;SDS011;65470;47.324;8.548;2023-02-17T08:56:05;13.15;;;5.88;;
32810;SDS011;65470;47.324;8.548;2023-02-17T08:58:31;12.02;;;5.55;;
32810;SDS011;65470;47.324;8.548;2023-02-17T09:00:58;10.30;;;5.60;;
32810;SDS011;65470;47.324;8.548;2023-02-17T09:03:24;9.13;;;6.10;;
32810;SDS011;65470;47.324;8.548;2023-02-17T09:05:53;6.40;;;5.10;;
32810;SDS011;65470;47.324;8.548;2023-02-17T09:08:20;10.23;;;5.78;;
32810;SDS011;65470;47.324;8.548;2023-02-17T09:10:45;9.30;;;5.07;;
32810;SDS011;65470;47.324;8.548;2023-02-17T09:13:11;11.20;;;6.07;;
32810;SDS011;65470;47.324;8.548;2023-02-17T09:15:37;10.18;;;4.97;;
32810;SDS011;65470;47.324;8.548;2023-02-17T09:18:02;11.52;;;5.63;;
32810;SDS011;65470;47.324;8.548;2023-02-17T09:20:28;9.90;;;5.90;;
32810;SDS011;65470;47.324;8.548;2023-02-17T09:22:54;15.35;;;6.20;;
32810;SDS011;65470;47.324;8.548;2023-02-17T09:25:19;10.18;;;5.63;;
32810;SDS011;65470;47.324;8.548;2023-02-17T09:27:45;11.90;;;6.45;;
32810;SDS011;65470;47.324;8.548;2023-02-17T09:30:11;12.40;;;6.05;;
32810;SDS011;65470;47.324;8.548;2023-02-17T09:32:39;8.73;;;5.70;;
32810;SDS011;65470;47.324;8.548;2023-02-17T09:35:06;11.27;;;5.80;;
32810;SDS011;65470;47.324;8.548;2023-02-17T09:37:31;12.43;;;6.43;;
32810;SDS011;65470;47.324;8.548;2023-02-17T09:39:57;8.98;;;5.50;;
32810;SDS011;65470;47.324;8.548;2023-02-17T09:42:24;9.55;;;5.68;;
32810;SDS011;65470;47.324;8.548;2023-02-17T09:44:56;10.40;;;5.45;;
32810;SDS011;65470;47.324;8.548;2023-02-17T09:47:30;13.93;;;6.05;;
32810;SDS011;65470;47.324;8.548;2023-02-17T09:50:10;11.80;;;6.07;;
32810;SDS011;65470;47.324;8.548;2023-02-17T10:00:42;8.52;;;6.45;;
32810;SDS011;65470;47.324;8.548;2023-02-17T10:06:06;16.00;;;5.82;;
32810;SDS011;65470;47.324;8.548;2023-02-17T10:08:40;12.75;;;5.75;;
32810;SDS011;65470;47.324;8.548;2023-02-17T10:16:47;14.95;;;5.95;;
32810;SDS011;65470;47.324;8.548;2023-02-17T10:19:51;12.73;;;5.60;;
32810;SDS011;65470;47.324;8.548;2023-02-17T10:22:20;12.48;;;6.28;;
32810;SDS011;65470;47.324;8.548;2023-02-17T10:24:47;10.88;;;5.55;;
32810;SDS011;65470;47.324;8.548;2023-02-17T10:27:31;10.95;;;5.25;;
32810;SDS011;65470;47.324;8.548;2023-02-17T10:30:22;10.68;;;5.93;;
32810;SDS011;65470;47.324;8.548;2023-02-17T10:33:00;28.67;;;6.55;;
32810;SDS011;65470;47.324;8.548;2023-02-17T10:38:02;16.63;;;6.07;;
32810;SDS011;65470;47.324;8.548;2023-02-17T10:40:38;13.45;;;5.93;;
32810;SDS011;65470;47.324;8.548;2023-02-17T10:43:04;11.32;;;5.43;;
32810;SDS011;65470;47.324;8.548;2023-02-17T10:45:33;10.55;;;6.15;;
32810;SDS011;65470;47.324;8.548;2023-02-17T10:48:11;11.75;;;5.82;;
32810;SDS011;65470;47.324;8.548;2023-02-17T10:50:44;8.50;;;5.50;;
32810;SDS011;65470;47.324;8.548;2023-02-17T10:53:18;7.20;;;4.95;;
32810;SDS011;65470;47.324;8.548;2023-02-17T10:55:56;8.63;;;5.05;;
32810;SDS011;65470;47.324;8.548;2023-02-17T10:58:31;13.95;;;5.65;;
32810;SDS011;65470;47.324;8.548;2023-02-17T11:01:09;7.03;;;5.28;;
32810;SDS011;65470;47.324;8.548;2023-02-17T11:03:36;9.02;;;5.43;;
32810;SDS011;65470;47.324;8.548;2023-02-17T11:06:05;12.20;;;5.55;;
32810;SDS011;65470;47.324;8.548;2023-02-17T11:08:44;10.30;;;5.10;;
32810;SDS011;65470;47.324;8.548;2023-02-17T11:11:23;9.48;;;5.35;;
32810;SDS011;65470;47.324;8.548;2023-02-17T11:19:20;14.13;;;7.05;;
32810;SDS011;65470;47.324;8.548;2023-02-17T11:21:54;28.30;;;6.35;;
32810;SDS011;65470;47.324;8.548;2023-02-17T11:24:22;13.68;;;5.28;;
32810;SDS011;65470;47.324;8.548;2023-02-17T11:26:57;22.88;;;6.25;;
32810;SDS011;65470;47.324;8.548;2023-02-17T11:29:28;10.60;;;5.03;;
32810;SDS011;65470;47.324;8.548;2023-02-17T11:31:56;10.93;;;5.32;;
32810;SDS011;65470;47.324;8.548;2023-02-17T11:34:28;10.40;;;5.03;;
32810;SDS011;65470;47.324;8.548;2023-02-17T11:37:19;10.82;;;4.65;;
32810;SDS011;65470;47.324;8.548;2023-02-17T11:39:49;6.68;;;5.22;;
32810;SDS011;65470;47.324;8.548;2023-02-17T11:42:26;10.07;;;5.40;;
32810;SDS011;65470;47.324;8.548;2023-02-17T11:44:58;13.20;;;4.97;;
32810;SDS011;65470;47.324;8.548;2023-02-17T12:12:48;8.50;;;4.30;;
32810;SDS011;65470;47.324;8.548;2023-02-17T12:18:48;8.73;;;5.30;;
32810;SDS011;65470;47.324;8.548;2023-02-17T12:38:10;12.40;;;5.97;;
32810;SDS011;65470;47.324;8.548;2023-02-17T12:40:42;14.77;;;6.50;;
32810;SDS011;65470;47.324;8.548;2023-02-17T12:43:34;11.05;;;6.18;;
32810;SDS011;65470;47.324;8.548;2023-02-17T12:46:16;9.60;;;5.65;;
32810;SDS011;65470;47.324;8.548;2023-02-17T12:48:50;15.45;;;5.95;;
32810;SDS011;65470;47.324;8.548;2023-02-17T12:54:04;10.48;;;5.95;;
32810;SDS011;65470;47.324;8.548;2023-02-17T12:59:36;11.55;;;6.38;;
32810;SDS011;65470;47.324;8.548;2023-02-17T13:04:39;11.43;;;6.30;;
32810;SDS011;65470;47.324;8.548;2023-02-17T13:09:48;9.57;;;5.57;;
32810;SDS011;65470;47.324;8.548;2023-02-17T13:12:16;12.00;;;6.03;;
32810;SDS011;65470;47.324;8.548;2023-02-17T13:14:50;11.43;;;5.97;;
32810;SDS011;65470;47.324;8.548;2023-02-17T13:17:21;11.30;;;5.47;;
32810;SDS011;65470;47.324;8.548;2023-02-17T13:22:34;8.27;;;5.40;;
32810;SDS011;65470;47.324;8.548;2023-02-17T13:25:04;9.88;;;6.18;;
32810;SDS011;65470;47.324;8.548;2023-02-17T13:27:34;11.10;;;5.82;;
32810;SDS011;65470;47.324;8.548;2023-02-17T13:30:07;9.95;;;5.35;;
32810;SDS011;65470;47.324;8.548;2023-02-17T13:32:59;5.72;;;5.20;;
32810;SDS011;65470;47.324;8.548;2023-02-17T13:37:57;9.77;;;5.53;;
32810;SDS011;65470;47.324;8.548;2023-02-17T13:43:06;9.25;;;5.28;;
32810;SDS011;65470;47.324;8.548;2023-02-17T13:45:41;11.95;;;6.18;;
32810;SDS011;65470;47.324;8.548;2023-02-17T13:50:46;10.15;;;5.85;;
32810;SDS011;65470;47.324;8.548;2023-02-17T13:53:20;12.40;;;6.60;;
32810;SDS011;65470;47.324;8.548;2023-02-17T13:55:46;12.88;;;6.25;;
32810;SDS011;65470;47.324;8.548;2023-02-17T13:58:12;10.77;;;6.22;;
32810;SDS011;65470;47.324;8.548;2023-02-17T14:00:38;16.98;;;6.28;;
32810;SDS011;65470;47.324;8.548;2023-02-17T14:05:47;10.35;;;6.38;;
32810;SDS011;65470;47.324;8.548;2023-02-17T14:08:18;13.57;;;6.75;;
32810;SDS011;65470;47.324;8.548;2023-02-17T14:10:50;12.32;;;7.05;;
32810;SDS011;65470;47.324;8.548;2023-02-17T14:13:16;15.68;;;7.00;;
32810;SDS011;65470;47.324;8.548;2023-02-17T14:15:49;12.35;;;5.88;;
32810;SDS011;65470;47.324;8.548;2023-02-17T14:18:26;11.57;;;6.30;;
32810;SDS011;65470;47.324;8.548;2023-02-17T14:20:58;10.77;;;6.00;;
32810;SDS011;65470;47.324;8.548;2023-02-17T14:23:25;13.82;;;5.65;;
32810;SDS011;65470;47.324;8.548;2023-02-17T14:25:51;10.48;;;5.95;;
32810;SDS011;65470;47.324;8.548;2023-02-17T14:28:24;11.60;;;5.72;;
32810;SDS011;65470;47.324;8.548;2023-02-17T14:30:52;9.20;;;5.75;;
32810;SDS011;65470;47.324;8.548;2023-02-17T14:33:19;9.23;;;6.13;;
32810;SDS011;65470;47.324;8.548;2023-02-17T14:35:57;10.23;;;6.07;;
32810;SDS011;65470;47.324;8.548;2023-02-17T14:40:50;11.60;;;6.03;;
32810;SDS011;65470;47.324;8.548;2023-02-17T14:43:22;10.68;;;5.90;;
32810;SDS011;65470;47.324;8.548;2023-02-17T14:45:49;9.38;;;5.63;;
32810;SDS011;65470;47.324;8.548;2023-02-17T14:48:15;11.15;;;5.47;;
32810;SDS011;65470;47.324;8.548;2023-02-17T14:50:40;13.27;;;5.30;;
32810;SDS011;65470;47.324;8.548;2023-02-17T14:56:13;11.65;;;5.35;;
32810;SDS011;65470;47.324;8.548;2023-02-17T14:58:43;8.40;;;5.47;;
32810;SDS011;65470;47.324;8.548;2023-02-17T15:01:13;13.88;;;5.55;;
32810;SDS011;65470;47.324;8.548;2023-02-17T15:03:40;10.07;;;5.55;;
32810;SDS011;65470;47.324;8.548;2023-02-17T15:06:15;7.78;;;5.22;;
32810;SDS011;65470;47.324;8.548;2023-02-17T15:08:44;9.30;;;5.25;;
32810;SDS011;65470;47.324;8.548;2023-02-17T15:11:46;10.02;;;5.47;;
32810;SDS011;65470;47.324;8.548;2023-02-17T15:14:13;10.20;;;5.72;;
32810;SDS011;65470;47.324;8.548;2023-02-17T15:16:40;14.57;;;6.28;;
32810;SDS011;65470;47.324;8.548;2023-02-17T15:19:07;9.85;;;6.20;;
32810;SDS011;65470;47.324;8.548;2023-02-17T15:21:34;10.27;;;6.10;;
32810;SDS011;65470;47.324;8.548;2023-02-17T15:24:01;9.50;;;6.00;;
32810;SDS011;65470;47.324;8.548;2023-02-17T15:26:30;12.40;;;6.57;;
32810;SDS011;65470;47.324;8.548;2023-02-17T15:28:56;9.90;;;6.00;;
32810;SDS011;65470;47.324;8.548;2023-02-17T15:31:22;9.88;;;6.30;;
32810;SDS011;65470;47.324;8.548;2023-02-17T15:33:56;10.65;;;5.95;;
32810;SDS011;65470;47.324;8.548;2023-02-17T15:36:23;14.27;;;6.65;;
32810;SDS011;65470;47.324;8.548;2023-02-17T15:38:50;9.77;;;5.63;;
32810;SDS011;65470;47.324;8.548;2023-02-17T15:41:16;9.07;;;6.80;;
32810;SDS011;65470;47.324;8.548;2023-02-17T15:43:51;11.52;;;6.32;;
32810;SDS011;65470;47.324;8.548;2023-02-17T15:46:19;10.70;;;6.20;;
32810;SDS011;65470;47.324;8.548;2023-02-17T15:48:50;14.60;;;6.60;;
32810;SDS011;65470;47.324;8.548;2023-02-17T15:51:16;10.80;;;6.22;;
32810;SDS011;65470;47.324;8.548;2023-02-17T15:53:43;11.30;;;7.28;;
32810;SDS011;65470;47.324;8.548;2023-02-17T15:56:11;9.82;;;6.53;;
32810;SDS011;65470;47.324;8.548;2023-02-17T15:58:39;9.85;;;6.97;;
32810;SDS011;65470;47.324;8.548;2023-02-17T16:01:04;11.13;;;6.28;;
32810;SDS011;65470;47.324;8.548;2023-02-17T16:03:30;14.45;;;7.35;;
32810;SDS011;65470;47.324;8.548;2023-02-17T16:05:56;12.23;;;7.00;;
32810;SDS011;65470;47.324;8.548;2023-02-17T16:08:21;12.70;;;6.80;;
32810;SDS011;65470;47.324;8.548;2023-02-17T16:10:47;16.38;;;7.25;;
32810;SDS011;65470;47.324;8.548;2023-02-17T16:13:14;15.88;;;6.80;;
32810;SDS011;65470;47.324;8.548;2023-02-17T16:15:43;11.82;;;6.70;;
32810;SDS011;65470;47.324;8.548;2023-02-17T16:18:15;10.38;;;7.60;;
32810;SDS011;65470;47.324;8.548;2023-02-17T16:20:45;16.33;;;7.80;;
32810;SDS011;65470;47.324;8.548;2023-02-17T16:23:11;14.82;;;8.25;;
32810;SDS011;65470;47.324;8.548;2023-02-17T16:25:36;16.35;;;8.02;;
32810;SDS011;65470;47.324;8.548;2023-02-17T16:28:02;10.02;;;7.30;;
32810;SDS011;65470;47.324;8.548;2023-02-17T16:30:33;11.38;;;7.25;;
32810;SDS011;65470;47.324;8.548;2023-02-17T16:33:00;12.02;;;7.25;;
32810;SDS011;65470;47.324;8.548;2023-02-17T16:35:27;12.25;;;7.18;;
32810;SDS011;65470;47.324;8.548;2023-02-17T16:37:58;16.15;;;7.15;;
32810;SDS011;65470;47.324;8.548;2023-02-17T16:40:27;14.75;;;6.40;;
32810;SDS011;65470;47.324;8.548;2023-02-17T16:42:54;18.20;;;6.80;;
32810;SDS011;65470;47.324;8.548;2023-02-17T16:45:21;14.52;;;7.22;;
32810;SDS011;65470;47.324;8.548;2023-02-17T16:47:50;11.68;;;7.05;;
32810;SDS011;65470;47.324;8.548;2023-02-17T16:50:29;16.60;;;6.93;;
32810;SDS011;65470;47.324;8.548;2023-02-17T16:53:00;13.90;;;7.45;;
32810;SDS011;65470;47.324;8.548;2023-02-17T16:55:29;12.77;;;6.93;;
32810;SDS011;65470;47.324;8.548;2023-02-17T16:57:56;11.02;;;7.43;;